Terminal Aerodrome Forecast
Issued by NWS

Current Version | Previous Version | Text Only | Print | Product List | Glossary Off
Versions: 1 2 3 4 5 6 7 8 9 10 11 12 13 14 15 16 17 18 19 20 21 22

000
FTUS41 KRLX 161002 AAA
TAFCKB
TAF AMD
KCKB 161002Z 1610/1706 20003KT 5SM -RA BR BKN016 BKN025 OVC080
     FM161500 31010KT 1 1/2SM -SHRA OVC008
     FM162000 31010G16KT P6SM OVC013
     FM162300 32008KT P6SM SCT021
     FM170300 34004KT P6SM FEW035=

USA.gov is the U.S. government's official web portal to all federal, state and local government web resources and services.